createdAt,value
2023-03-19T00:01:16.041Z,35.17
2023-03-19T00:02:38.159Z,35.60
2023-03-19T00:04:00.325Z,30.57
2023-03-19T00:05:22.423Z,29.60
2023-03-19T00:06:44.629Z,32.73
2023-03-19T00:08:06.892Z,32.13
2023-03-19T00:09:29.134Z,33.47
2023-03-19T00:10:51.679Z,31.57
2023-03-19T00:12:13.925Z,30.33
2023-03-19T00:13:36.400Z,29.60
2023-03-19T00:14:58.560Z,28.80
2023-03-19T00:16:20.939Z,30.23
2023-03-19T00:17:43.447Z,32.07
2023-03-19T00:19:05.673Z,29.27
2023-03-19T00:20:27.763Z,34.63
2023-03-19T00:21:49.801Z,31.97
2023-03-19T00:23:12.238Z,29.80
2023-03-19T00:24:34.553Z,34.83
2023-03-19T00:25:56.656Z,30.37
2023-03-19T00:27:18.699Z,33.03
2023-03-19T00:28:41.216Z,32.70
2023-03-19T00:30:04.814Z,33.83
2023-03-19T00:31:28.224Z,28.90
2023-03-19T00:32:50.581Z,31.73
2023-03-19T00:34:13.644Z,36.57
2023-03-19T00:35:36.110Z,33.13
2023-03-19T00:36:58.310Z,33.53
2023-03-19T00:38:20.558Z,35.33
2023-03-19T00:39:43.220Z,32.67
2023-03-19T00:41:07.329Z,31.27
2023-03-19T00:42:30.109Z,28.20
2023-03-19T00:43:57.191Z,31.57
2023-03-19T00:45:19.293Z,30.17
2023-03-19T00:46:41.557Z,31.83
2023-03-19T00:48:03.797Z,34.40
2023-03-19T00:49:25.883Z,33.73
2023-03-19T00:50:48.814Z,34.47
2023-03-19T00:52:11.107Z,31.20
2023-03-19T00:53:36.553Z,31.10
2023-03-19T00:54:58.570Z,34.97
2023-03-19T00:56:21.177Z,36.10
2023-03-19T00:57:43.387Z,32.37
2023-03-19T00:59:05.612Z,34.47
2023-03-19T01:00:28.393Z,30.37
2023-03-19T01:01:51.179Z,32.77
2023-03-19T01:03:13.217Z,39.57
2023-03-19T01:04:35.437Z,34.30
2023-03-19T01:05:58.688Z,34.27
2023-03-19T01:07:21.246Z,29.43
2023-03-19T01:08:43.307Z,31.30
2023-03-19T01:10:06.509Z,30.93
2023-03-19T01:11:28.626Z,32.67
2023-03-19T01:12:51.084Z,33.30
2023-03-19T01:14:13.146Z,34.63
2023-03-19T01:15:39.770Z,33.13
2023-03-19T01:17:01.855Z,31.27
2023-03-19T01:18:23.939Z,31.40
2023-03-19T01:19:46.058Z,27.60
2023-03-19T01:21:08.325Z,37.27
2023-03-19T01:22:30.638Z,30.93
2023-03-19T01:23:52.732Z,30.10
2023-03-19T01:25:14.843Z,32.23
2023-03-19T01:26:36.934Z,30.10
2023-03-19T01:27:59.087Z,36.40
2023-03-19T01:29:21.195Z,30.13
2023-03-19T01:30:43.278Z,33.70
2023-03-19T01:32:06.042Z,34.70
2023-03-19T01:33:28.288Z,32.70
2023-03-19T01:34:50.406Z,32.83
2023-03-19T01:36:13.229Z,30.57
2023-03-19T01:37:36.883Z,40.73
2023-03-19T01:38:59.034Z,36.23
2023-03-19T01:40:21.090Z,33.13
2023-03-19T01:41:43.131Z,30.00
2023-03-19T01:43:23.121Z,30.13
2023-03-19T01:44:45.234Z,35.83
2023-03-19T01:46:15.738Z,37.70
2023-03-19T01:47:41.548Z,31.30
2023-03-19T01:49:07.172Z,33.90
2023-03-19T01:50:34.649Z,31.60
2023-03-19T01:51:59.322Z,33.13
2023-03-19T01:53:25.992Z,34.03
2023-03-19T01:54:48.567Z,31.57
2023-03-19T01:56:27.651Z,39.20
2023-03-19T01:57:49.835Z,35.40
2023-03-19T01:59:23.322Z,35.37
2023-03-19T02:00:45.880Z,37.37
2023-03-19T02:02:33.192Z,35.83
2023-03-19T02:03:55.765Z,31.83
2023-03-19T02:05:25.540Z,37.20
2023-03-19T02:06:47.750Z,34.53
2023-03-19T02:08:13.752Z,29.83
2023-03-19T02:09:36.798Z,33.27
2023-03-19T02:11:00.260Z,34.80
2023-03-19T02:12:22.428Z,27.93
2023-03-19T02:13:44.876Z,27.93
2023-03-19T02:15:07.680Z,31.17
2023-03-19T02:16:29.914Z,31.13
2023-03-19T02:17:52.069Z,33.27
2023-03-19T02:19:18.587Z,32.73
2023-03-19T02:20:55.677Z,29.27
2023-03-19T02:22:21.736Z,33.10
2023-03-19T02:24:08.899Z,39.10
2023-03-19T02:25:44.789Z,30.93
2023-03-19T02:27:09.096Z,26.30
2023-03-19T02:28:33.470Z,29.63
2023-03-19T02:29:55.519Z,31.67
2023-03-19T02:31:18.409Z,36.77
2023-03-19T02:32:40.778Z,34.67
2023-03-19T02:34:24.017Z,33.77
2023-03-19T02:35:50.457Z,32.20
2023-03-19T02:37:33.626Z,29.67
2023-03-19T02:39:00.562Z,30.93
2023-03-19T02:40:31.132Z,32.30
2023-03-19T02:41:54.560Z,31.43
2023-03-19T02:43:16.672Z,29.10
2023-03-19T02:44:38.924Z,34.00
2023-03-19T02:46:02.988Z,31.07
2023-03-19T02:47:26.546Z,32.60
2023-03-19T02:48:49.186Z,34.03
2023-03-19T02:50:11.435Z,37.40
2023-03-19T02:51:33.485Z,30.63
2023-03-19T02:52:55.613Z,30.27
2023-03-19T02:54:17.654Z,28.57
2023-03-19T02:55:39.720Z,30.03
2023-03-19T02:57:01.840Z,40.70
2023-03-19T02:58:23.881Z,32.90
2023-03-19T02:59:46.293Z,37.10
2023-03-19T03:01:08.347Z,33.80
2023-03-19T03:02:30.995Z,32.50
2023-03-19T03:03:53.193Z,31.80
2023-03-19T03:05:15.397Z,31.93
2023-03-19T03:06:37.574Z,38.83
2023-03-19T03:07:59.679Z,34.80
2023-03-19T03:09:22.558Z,32.63
2023-03-19T03:10:44.652Z,31.53
2023-03-19T03:12:07.258Z,33.57
2023-03-19T03:13:29.448Z,31.43
2023-03-19T03:14:51.674Z,34.33
2023-03-19T03:16:13.880Z,33.73
2023-03-19T03:17:40.397Z,33.63
2023-03-19T03:19:02.503Z,36.87
2023-03-19T03:20:24.764Z,34.67
2023-03-19T03:21:46.968Z,36.87
2023-03-19T03:23:09.156Z,32.90
2023-03-19T03:24:31.633Z,37.33
2023-03-19T03:25:53.757Z,32.80
2023-03-19T03:27:16.311Z,34.20
2023-03-19T03:28:38.372Z,31.50
2023-03-19T03:30:00.437Z,30.13
2023-03-19T03:31:23.225Z,31.50
2023-03-19T03:32:45.719Z,38.30
2023-03-19T03:34:08.047Z,39.63
2023-03-19T03:35:30.160Z,38.30
2023-03-19T03:36:52.211Z,39.37
2023-03-19T03:38:14.245Z,32.50
2023-03-19T03:39:37.661Z,34.57
2023-03-19T03:40:59.716Z,30.20
2023-03-19T03:42:21.740Z,33.47
2023-03-19T03:43:43.876Z,28.13
2023-03-19T03:45:06.456Z,28.07
2023-03-19T03:46:28.542Z,27.83
2023-03-19T03:47:51.109Z,29.20
2023-03-19T03:49:13.231Z,29.97
2023-03-19T03:50:35.531Z,33.20
2023-03-19T03:51:57.898Z,36.73
2023-03-19T03:53:20.318Z,30.63
2023-03-19T03:54:42.337Z,29.70
2023-03-19T03:56:04.581Z,30.37
2023-03-19T03:57:27.477Z,32.00
2023-03-19T03:58:49.535Z,29.83
2023-03-19T04:00:12.517Z,29.30
2023-03-19T04:01:34.521Z,37.57
2023-03-19T04:02:56.702Z,27.93
2023-03-19T04:04:20.139Z,31.03
2023-03-19T04:05:43.285Z,26.63
2023-03-19T04:07:05.435Z,29.30
2023-03-19T04:08:27.495Z,24.93
2023-03-19T04:09:50.861Z,24.13
2023-03-19T04:11:13.253Z,33.53
2023-03-19T04:12:37.740Z,26.70
2023-03-19T04:13:59.874Z,25.17
2023-03-19T04:15:22.639Z,26.37
2023-03-19T04:16:44.760Z,25.40
2023-03-19T04:18:06.807Z,26.20
2023-03-19T04:19:28.846Z,27.07
2023-03-19T04:20:52.395Z,24.60
2023-03-19T04:22:14.461Z,28.70
2023-03-19T04:23:36.536Z,27.93
2023-03-19T04:24:58.776Z,26.17
2023-03-19T04:26:21.112Z,29.33
2023-03-19T04:27:43.127Z,26.23
2023-03-19T04:29:05.994Z,26.93
2023-03-19T04:30:28.102Z,30.53
2023-03-19T04:31:51.085Z,27.60
2023-03-19T04:33:13.191Z,28.40
2023-03-19T04:34:35.898Z,30.53
2023-03-19T04:35:58.297Z,29.07
2023-03-19T04:37:20.305Z,28.53
2023-03-19T04:38:42.356Z,31.97
2023-03-19T04:40:05.851Z,26.13
2023-03-19T04:41:27.954Z,26.90
2023-03-19T04:42:50.071Z,25.13
2023-03-19T04:44:12.316Z,27.43
2023-03-19T04:45:34.334Z,24.47
2023-03-19T04:46:56.624Z,31.20
2023-03-19T04:48:18.773Z,30.70
2023-03-19T04:49:41.536Z,24.77
2023-03-19T04:51:03.994Z,26.93
2023-03-19T04:52:26.146Z,22.47
2023-03-19T04:53:48.917Z,23.43
2023-03-19T04:55:11.353Z,27.20
2023-03-19T04:56:33.447Z,24.70
2023-03-19T04:57:55.880Z,25.57
2023-03-19T04:59:18.209Z,25.40
2023-03-19T05:00:40.286Z,27.80
2023-03-19T05:02:02.321Z,23.27
2023-03-19T05:03:24.606Z,28.13
2023-03-19T05:04:46.693Z,27.53
2023-03-19T05:06:08.732Z,31.37
2023-03-19T05:07:30.928Z,26.27
2023-03-19T05:08:53.350Z,24.70
2023-03-19T05:10:15.486Z,27.37
2023-03-19T05:11:37.621Z,31.00
2023-03-19T05:12:59.699Z,34.33
2023-03-19T05:14:21.961Z,39.27
2023-03-19T05:15:45.070Z,25.73
2023-03-19T05:17:07.505Z,34.47
2023-03-19T05:18:29.541Z,30.37
2023-03-19T05:19:52.898Z,30.37
2023-03-19T05:21:16.106Z,37.93
2023-03-19T05:22:38.509Z,35.10
2023-03-19T05:24:00.572Z,59.70
2023-03-19T05:25:22.597Z,103.30
2023-03-19T05:26:44.638Z,129.33
2023-03-19T05:28:08.211Z,123.13
2023-03-19T05:29:30.403Z,117.07
2023-03-19T05:30:52.490Z,124.20
2023-03-19T05:32:14.542Z,127.33
2023-03-19T05:33:36.712Z,128.37
2023-03-19T05:34:59.010Z,103.70
2023-03-19T05:36:21.267Z,81.40
2023-03-19T05:37:43.327Z,61.67
2023-03-19T05:39:06.040Z,52.40
2023-03-19T05:40:28.329Z,50.53
2023-03-19T05:41:50.582Z,43.30
2023-03-19T05:43:13.117Z,47.60
2023-03-19T05:44:35.214Z,39.07
2023-03-19T05:45:57.949Z,36.70
2023-03-19T05:47:20.221Z,32.70
2023-03-19T05:48:42.361Z,34.00
2023-03-19T05:50:05.540Z,28.00
2023-03-19T05:51:27.616Z,35.33
2023-03-19T05:52:49.656Z,31.70
2023-03-19T05:54:11.745Z,32.20
2023-03-19T05:55:33.844Z,35.67
2023-03-19T05:56:55.983Z,34.73
2023-03-19T05:58:18.027Z,29.90
2023-03-19T05:59:40.077Z,32.17
2023-03-19T06:01:02.751Z,31.33
2023-03-19T06:02:24.902Z,32.23
2023-03-19T06:03:46.970Z,32.27
2023-03-19T06:05:10.055Z,30.50
2023-03-19T06:06:32.108Z,25.30
2023-03-19T06:07:54.222Z,32.00
2023-03-19T06:09:16.236Z,32.23
2023-03-19T06:10:38.300Z,30.67
2023-03-19T06:12:00.436Z,30.00
2023-03-19T06:13:22.506Z,39.77
2023-03-19T06:14:44.818Z,35.33
2023-03-19T06:16:07.280Z,32.37
2023-03-19T06:17:29.522Z,36.57
2023-03-19T06:18:51.636Z,37.47
2023-03-19T06:20:13.844Z,37.73
2023-03-19T06:21:36.034Z,37.17
2023-03-19T06:22:58.314Z,31.37
2023-03-19T06:24:20.490Z,35.47
2023-03-19T06:25:42.540Z,31.50
2023-03-19T06:27:04.702Z,35.43
2023-03-19T06:28:26.718Z,32.70
2023-03-19T06:29:48.828Z,27.77
2023-03-19T06:31:11.124Z,28.40
2023-03-19T06:32:33.268Z,28.37
2023-03-19T06:33:56.291Z,29.40
2023-03-19T06:35:18.679Z,37.70
2023-03-19T06:36:40.747Z,26.30
2023-03-19T06:38:02.797Z,32.13
2023-03-19T06:39:24.899Z,29.10
2023-03-19T06:40:46.977Z,25.60
2023-03-19T06:42:09.184Z,25.47
2023-03-19T06:43:31.872Z,26.23
2023-03-19T06:44:53.920Z,28.33
2023-03-19T06:46:16.078Z,29.83
2023-03-19T06:47:40.376Z,26.97
2023-03-19T06:49:02.849Z,27.90
2023-03-19T06:50:24.981Z,26.10
2023-03-19T06:51:47.038Z,28.17
2023-03-19T06:53:09.264Z,33.53
2023-03-19T06:54:31.654Z,30.43
2023-03-19T06:55:54.029Z,34.00
2023-03-19T06:57:16.676Z,32.40
2023-03-19T06:58:38.723Z,29.50
2023-03-19T07:00:01.036Z,35.00
2023-03-19T07:01:23.122Z,35.50
2023-03-19T07:02:45.658Z,31.17
2023-03-19T07:04:07.984Z,31.67
2023-03-19T07:05:30.144Z,35.00
2023-03-19T07:06:52.172Z,28.13
2023-03-19T07:08:14.207Z,35.77
2023-03-19T07:09:36.420Z,31.30
2023-03-19T07:11:05.131Z,33.40
2023-03-19T07:12:27.977Z,33.93
2023-03-19T07:13:50.063Z,32.87
2023-03-19T07:15:12.635Z,36.37
2023-03-19T07:16:34.804Z,32.53
2023-03-19T07:17:57.412Z,33.23
2023-03-19T07:19:19.510Z,36.30
2023-03-19T07:20:41.543Z,32.30
2023-03-19T07:22:03.849Z,38.10
2023-03-19T07:23:25.926Z,35.10
2023-03-19T07:24:48.012Z,32.30
2023-03-19T07:26:11.572Z,30.43
2023-03-19T07:27:34.159Z,33.47
2023-03-19T07:28:56.260Z,34.30
2023-03-19T07:30:18.564Z,33.83
2023-03-19T07:31:40.946Z,36.50
2023-03-19T07:33:03.104Z,30.83
2023-03-19T07:34:26.191Z,34.90
2023-03-19T07:35:48.704Z,35.50
2023-03-19T07:37:10.862Z,30.77
2023-03-19T07:38:33.032Z,29.40
2023-03-19T07:39:55.076Z,30.43
2023-03-19T07:41:17.637Z,32.40
2023-03-19T07:42:39.995Z,28.83
2023-03-19T07:44:02.060Z,35.30
2023-03-19T07:45:24.175Z,26.97
2023-03-19T07:46:46.521Z,37.37
2023-03-19T07:48:08.529Z,36.40
2023-03-19T07:49:31.334Z,34.13
2023-03-19T07:50:54.319Z,29.50
2023-03-19T07:52:19.072Z,29.57
2023-03-19T07:53:41.369Z,27.13
2023-03-19T07:55:03.771Z,27.43
2023-03-19T07:56:25.935Z,30.63
2023-03-19T07:57:48.353Z,23.33
2023-03-19T07:59:11.163Z,26.73
2023-03-19T08:00:33.659Z,25.70
2023-03-19T08:01:55.889Z,30.93
2023-03-19T08:03:18.145Z,33.37
2023-03-19T08:04:41.413Z,27.40
2023-03-19T08:06:03.940Z,28.23
2023-03-19T08:07:26.161Z,29.30
2023-03-19T08:08:48.251Z,26.50
2023-03-19T08:10:11.429Z,28.67
2023-03-19T08:11:33.637Z,26.13
2023-03-19T08:12:55.978Z,25.17
2023-03-19T08:14:22.384Z,24.87
2023-03-19T08:15:44.728Z,24.00
2023-03-19T08:17:06.897Z,26.27
2023-03-19T08:18:29.009Z,23.90
2023-03-19T08:19:51.046Z,26.30
2023-03-19T08:21:13.125Z,29.60
2023-03-19T08:22:38.704Z,31.07
2023-03-19T08:24:02.554Z,24.93
2023-03-19T08:25:27.590Z,27.40
2023-03-19T08:26:50.236Z,30.07
2023-03-19T08:28:12.549Z,22.90
2023-03-19T08:29:35.191Z,33.50
2023-03-19T08:30:57.296Z,27.57
2023-03-19T08:32:19.364Z,24.80
2023-03-19T08:33:41.982Z,22.50
2023-03-19T08:35:06.114Z,25.40
2023-03-19T08:36:28.262Z,25.20
2023-03-19T08:37:50.339Z,26.93
2023-03-19T08:39:12.395Z,26.97
2023-03-19T08:40:34.675Z,23.83
2023-03-19T08:41:57.717Z,22.43
2023-03-19T08:43:19.724Z,23.17
2023-03-19T08:44:41.824Z,26.30
2023-03-19T08:46:05.413Z,20.77
2023-03-19T08:47:27.625Z,26.40
2023-03-19T08:48:49.683Z,27.20
2023-03-19T08:50:12.670Z,21.30
2023-03-19T08:51:34.858Z,24.93
2023-03-19T08:52:57.547Z,23.67
2023-03-19T08:54:22.192Z,24.93
2023-03-19T08:55:45.011Z,22.23
2023-03-19T08:57:07.119Z,20.03
2023-03-19T08:58:29.351Z,23.80
2023-03-19T08:59:53.433Z,21.63
2023-03-19T09:01:15.958Z,20.97
2023-03-19T09:02:38.222Z,22.47
2023-03-19T09:04:00.294Z,23.53
2023-03-19T09:05:23.304Z,26.70
2023-03-19T09:06:45.467Z,28.80
2023-03-19T09:08:07.960Z,28.30
2023-03-19T09:09:30.224Z,25.60
2023-03-19T09:10:52.579Z,25.53
2023-03-19T09:12:16.795Z,23.23
2023-03-19T09:13:39.075Z,24.33
2023-03-19T09:15:01.254Z,25.23
2023-03-19T09:16:23.373Z,22.77
2023-03-19T09:17:45.668Z,21.27
2023-03-19T09:19:08.016Z,20.53
2023-03-19T09:20:30.246Z,19.87
2023-03-19T09:21:52.323Z,19.80
2023-03-19T09:23:14.328Z,18.63
2023-03-19T09:24:38.766Z,19.40
2023-03-19T09:26:02.269Z,15.90
2023-03-19T09:27:24.404Z,18.87
2023-03-19T09:28:46.423Z,15.97
2023-03-19T09:30:12.163Z,16.97
2023-03-19T09:31:34.324Z,13.97
2023-03-19T09:32:56.656Z,17.17
2023-03-19T09:34:18.881Z,14.80
2023-03-19T09:35:41.003Z,15.23
2023-03-19T09:37:03.155Z,13.77
2023-03-19T09:38:25.218Z,13.43
2023-03-19T09:39:47.274Z,12.77
2023-03-19T09:41:09.361Z,13.57
2023-03-19T09:42:50.216Z,9.70
2023-03-19T09:44:33.784Z,11.73
2023-03-19T09:45:56.601Z,8.87
2023-03-19T09:47:32.349Z,10.53
2023-03-19T09:48:57.498Z,8.27
2023-03-19T09:50:23.725Z,13.20
2023-03-19T09:51:53.210Z,8.30
2023-03-19T09:53:30.434Z,10.63
2023-03-19T09:54:56.577Z,6.87
2023-03-19T09:56:19.686Z,6.80
2023-03-19T09:57:41.907Z,8.70
2023-03-19T09:59:04.001Z,5.57
2023-03-19T10:00:34.242Z,8.77
2023-03-19T10:02:19.487Z,5.70
2023-03-19T10:04:02.511Z,4.97
2023-03-19T10:05:43.520Z,5.50
2023-03-19T10:07:32.528Z,3.67
2023-03-19T10:09:03.538Z,6.83
2023-03-19T10:10:49.632Z,5.33
2023-03-19T10:12:23.297Z,4.60
2023-03-19T10:14:01.713Z,4.80
2023-03-19T10:15:33.443Z,3.90
2023-03-19T10:16:58.226Z,3.40
2023-03-19T10:18:29.753Z,3.83
2023-03-19T10:19:57.298Z,5.60
2023-03-19T10:21:22.194Z,5.07
2023-03-19T10:23:19.311Z,5.50
2023-03-19T10:24:44.692Z,4.67
2023-03-19T10:26:15.704Z,3.37
2023-03-19T10:27:38.099Z,7.93
2023-03-19T10:29:09.184Z,5.50
2023-03-19T10:30:33.702Z,6.10
2023-03-19T10:32:04.901Z,6.13
2023-03-19T10:33:59.947Z,8.23
2023-03-19T10:35:37.435Z,6.07
2023-03-19T10:37:14.573Z,4.20
2023-03-19T10:38:41.443Z,7.23
2023-03-19T10:40:10.889Z,6.77
2023-03-19T10:41:36.050Z,5.17
2023-03-19T10:43:04.072Z,7.10
2023-03-19T10:44:43.668Z,4.90
2023-03-19T10:46:05.779Z,3.43
2023-03-19T10:47:27.953Z,4.17
2023-03-19T10:48:50.405Z,5.70
2023-03-19T10:50:23.280Z,3.97
2023-03-19T10:51:46.281Z,9.13
2023-03-19T10:53:14.197Z,6.37
2023-03-19T10:54:40.573Z,5.17
2023-03-19T10:56:06.884Z,4.33
2023-03-19T10:57:31.704Z,4.87
2023-03-19T10:59:06.317Z,6.90
2023-03-19T11:00:33.297Z,4.40
2023-03-19T11:02:01.832Z,7.00
2023-03-19T11:03:29.417Z,5.10
2023-03-19T11:05:07.914Z,5.60
2023-03-19T11:06:33.928Z,4.97
2023-03-19T11:07:57.394Z,5.00
2023-03-19T11:09:34.138Z,4.20
2023-03-19T11:10:56.404Z,3.93
2023-03-19T11:12:31.460Z,5.10
2023-03-19T11:13:53.817Z,4.90
2023-03-19T11:15:21.548Z,3.20
2023-03-19T11:16:52.465Z,6.03
2023-03-19T11:18:21.644Z,5.23
2023-03-19T11:19:52.200Z,4.07
2023-03-19T11:21:29.440Z,3.00
2023-03-19T11:22:52.710Z,4.00
2023-03-19T11:24:17.046Z,4.70
2023-03-19T11:25:51.984Z,5.20
2023-03-19T11:27:14.016Z,3.33
2023-03-19T11:28:37.914Z,3.77
2023-03-19T11:30:00.457Z,4.80
2023-03-19T11:31:41.652Z,4.90
2023-03-19T11:33:19.203Z,3.20
2023-03-19T11:34:59.784Z,4.57
2023-03-19T11:36:56.963Z,3.20
2023-03-19T11:38:30.706Z,3.70
2023-03-19T11:40:10.757Z,3.47
2023-03-19T11:42:06.868Z,3.23
2023-03-19T11:43:38.928Z,3.20
2023-03-19T11:45:32.164Z,3.23
2023-03-19T11:47:17.761Z,4.20
2023-03-19T11:48:55.501Z,4.10
2023-03-19T11:50:26.987Z,3.80
2023-03-19T11:51:59.822Z,4.60
2023-03-19T11:53:56.730Z,5.20
2023-03-19T11:55:28.294Z,3.57
2023-03-19T11:57:03.987Z,3.13
2023-03-19T11:58:38.060Z,2.97
2023-03-19T12:00:03.032Z,2.90
2023-03-19T12:01:51.324Z,2.97
2023-03-19T12:03:35.409Z,4.07
2023-03-19T12:05:10.005Z,3.47
2023-03-19T12:06:48.699Z,3.33
2023-03-19T12:08:18.850Z,3.40
2023-03-19T12:10:12.063Z,3.33
2023-03-19T12:11:40.013Z,3.47
2023-03-19T12:13:37.656Z,3.73
2023-03-19T12:15:15.211Z,3.07
2023-03-19T12:16:48.974Z,2.87
2023-03-19T12:18:40.985Z,3.23
2023-03-19T12:20:03.428Z,7.60
2023-03-19T12:21:47.434Z,3.43
2023-03-19T12:23:19.373Z,6.53
2023-03-19T12:24:57.571Z,3.43
2023-03-19T12:26:26.669Z,3.30
2023-03-19T12:27:48.724Z,3.10
2023-03-19T12:29:17.283Z,3.27
2023-03-19T12:30:44.865Z,5.27
2023-03-19T12:32:37.877Z,4.00
2023-03-19T12:34:12.177Z,3.73
2023-03-19T12:35:38.977Z,3.97
2023-03-19T12:37:13.945Z,2.90
2023-03-19T12:38:48.514Z,1.80
2023-03-19T12:40:20.126Z,2.70
2023-03-19T12:41:44.509Z,3.30
2023-03-19T12:43:19.569Z,1.77
2023-03-19T12:44:46.084Z,1.60
2023-03-19T12:46:26.192Z,1.30
2023-03-19T12:47:50.378Z,2.20
2023-03-19T12:49:25.707Z,1.47
2023-03-19T12:50:54.102Z,1.40
2023-03-19T12:52:26.619Z,1.90
2023-03-19T12:54:19.513Z,1.37
2023-03-19T12:55:48.750Z,2.67
2023-03-19T12:57:27.284Z,2.67
2023-03-19T12:59:01.322Z,2.20
2023-03-19T13:00:26.351Z,2.20
2023-03-19T13:01:54.096Z,2.00
2023-03-19T13:03:31.215Z,1.57
2023-03-19T13:05:22.952Z,3.77
2023-03-19T13:06:50.081Z,1.70
2023-03-19T13:08:30.159Z,2.10
2023-03-19T13:10:00.811Z,3.00
2023-03-19T13:11:28.523Z,2.37
2023-03-19T13:12:52.385Z,2.20
2023-03-19T13:14:25.558Z,2.63
2023-03-19T13:15:51.899Z,2.60
2023-03-19T13:17:32.811Z,2.80
2023-03-19T13:19:35.499Z,1.97
2023-03-19T13:21:11.684Z,3.70
2023-03-19T13:22:37.891Z,3.87
2023-03-19T13:24:24.270Z,3.03
2023-03-19T13:25:49.142Z,2.17
2023-03-19T13:27:22.507Z,3.90
2023-03-19T13:29:15.986Z,3.10
2023-03-19T13:30:42.448Z,3.10
2023-03-19T13:32:30.468Z,2.90
2023-03-19T13:34:14.689Z,2.63
2023-03-19T13:35:49.951Z,2.90
2023-03-19T13:37:21.110Z,3.60
2023-03-19T13:38:51.257Z,3.73
2023-03-19T13:40:39.666Z,5.30
2023-03-19T13:42:20.146Z,5.00
2023-03-19T13:43:43.136Z,2.90
2023-03-19T13:45:20.571Z,3.30
2023-03-19T13:46:45.248Z,2.03
2023-03-19T13:48:29.944Z,7.00
2023-03-19T13:50:08.765Z,4.87
2023-03-19T13:51:32.925Z,6.33
2023-03-19T13:53:32.340Z,7.40
2023-03-19T13:54:58.053Z,9.33
2023-03-19T13:56:29.493Z,4.20
2023-03-19T13:58:16.101Z,2.17
2023-03-19T13:59:39.554Z,3.90
2023-03-19T14:01:01.783Z,3.47
2023-03-19T14:02:26.609Z,2.50
2023-03-19T14:04:22.933Z,1.90
2023-03-19T14:05:48.480Z,5.10
2023-03-19T14:07:20.931Z,5.13
2023-03-19T14:08:48.621Z,5.07
2023-03-19T14:10:25.275Z,4.80
2023-03-19T14:11:47.433Z,2.50
2023-03-19T14:13:35.894Z,3.77
2023-03-19T14:15:09.842Z,3.07
2023-03-19T14:16:39.288Z,2.30
2023-03-19T14:18:05.830Z,3.03
2023-03-19T14:19:30.985Z,3.50
2023-03-19T14:20:56.370Z,5.10
2023-03-19T14:22:35.551Z,4.77
2023-03-19T14:24:52.402Z,4.17
2023-03-19T14:26:13.044Z,4.40
2023-03-19T14:27:35.978Z,2.60
2023-03-19T14:29:07.436Z,6.00
2023-03-19T14:30:44.474Z,3.77
2023-03-19T14:32:09.573Z,3.43
2023-03-19T14:33:54.009Z,5.77
2023-03-19T14:35:20.524Z,4.07
2023-03-19T14:36:48.944Z,3.63
2023-03-19T14:38:31.815Z,6.20
2023-03-19T14:40:12.448Z,5.87
2023-03-19T14:41:43.165Z,3.80
2023-03-19T14:43:14.204Z,3.67
2023-03-19T14:44:54.422Z,6.37
2023-03-19T14:46:55.117Z,3.27
2023-03-19T14:48:55.943Z,4.13
2023-03-19T14:50:29.724Z,6.73
2023-03-19T14:52:10.326Z,4.10
2023-03-19T14:53:49.581Z,5.13
2023-03-19T14:55:16.032Z,5.73
2023-03-19T14:56:38.324Z,9.70
2023-03-19T14:58:04.341Z,3.53
2023-03-19T14:59:26.523Z,5.87
2023-03-19T15:00:51.465Z,4.90
2023-03-19T15:02:42.532Z,8.77
2023-03-19T15:04:08.867Z,6.00
2023-03-19T15:05:34.061Z,6.53
2023-03-19T15:07:01.069Z,5.80
2023-03-19T15:08:24.333Z,3.50
2023-03-19T15:09:54.771Z,4.97
2023-03-19T15:11:31.814Z,5.30
2023-03-19T15:13:07.392Z,7.23
2023-03-19T15:14:42.372Z,3.40
2023-03-19T15:16:21.329Z,5.87
2023-03-19T15:17:49.197Z,4.70
2023-03-19T15:19:24.302Z,9.40
2023-03-19T15:20:50.969Z,10.20
2023-03-19T15:22:13.045Z,5.80
2023-03-19T15:23:46.293Z,8.83
2023-03-19T15:25:14.273Z,8.90
2023-03-19T15:26:37.447Z,14.90
2023-03-19T15:28:26.509Z,6.90
2023-03-19T15:29:51.573Z,8.40
2023-03-19T15:31:31.137Z,8.00
2023-03-19T15:33:10.360Z,3.57
2023-03-19T15:34:33.034Z,5.00
2023-03-19T15:36:03.505Z,8.93
2023-03-19T15:37:28.473Z,30.07
2023-03-19T15:39:04.861Z,40.83
2023-03-19T15:40:31.089Z,25.97
2023-03-19T15:41:54.766Z,13.37
2023-03-19T15:43:17.154Z,8.47
2023-03-19T15:44:47.699Z,7.27
2023-03-19T15:46:16.828Z,5.10
2023-03-19T15:48:17.613Z,4.80
2023-03-19T15:49:43.683Z,5.10
2023-03-19T15:51:08.034Z,4.70
2023-03-19T15:52:33.732Z,7.07
2023-03-19T15:53:56.324Z,7.20
2023-03-19T15:55:21.168Z,7.03
2023-03-19T15:56:43.472Z,4.67
2023-03-19T15:58:15.734Z,6.40
2023-03-19T15:59:38.016Z,6.97
2023-03-19T16:01:01.345Z,7.27
2023-03-19T16:02:34.862Z,7.07
2023-03-19T16:04:01.099Z,6.83
2023-03-19T16:05:24.485Z,7.77
2023-03-19T16:06:49.555Z,8.50
2023-03-19T16:08:17.722Z,7.43
2023-03-19T16:09:39.772Z,6.57
2023-03-19T16:11:38.617Z,5.23
2023-03-19T16:13:05.575Z,7.67
2023-03-19T16:14:30.358Z,7.90
2023-03-19T16:16:05.967Z,9.40
2023-03-19T16:17:35.183Z,5.90
2023-03-19T16:18:58.619Z,8.63
2023-03-19T16:20:21.313Z,6.97
2023-03-19T16:21:43.818Z,6.03
2023-03-19T16:23:06.010Z,8.80
2023-03-19T16:24:34.246Z,3.70
2023-03-19T16:25:56.662Z,7.77
2023-03-19T16:27:39.726Z,10.67
2023-03-19T16:29:23.032Z,9.50
2023-03-19T16:30:48.829Z,8.67
2023-03-19T16:32:19.357Z,16.50
2023-03-19T16:33:42.432Z,9.00
2023-03-19T16:35:04.812Z,7.73
2023-03-19T16:36:32.666Z,5.97
2023-03-19T16:37:55.212Z,11.70
2023-03-19T16:39:34.026Z,9.33
2023-03-19T16:41:32.332Z,7.00
2023-03-19T16:42:56.088Z,6.13
2023-03-19T16:44:19.145Z,6.20
2023-03-19T16:45:42.524Z,8.13
2023-03-19T16:47:12.732Z,8.03
2023-03-19T16:48:34.894Z,5.23
2023-03-19T16:49:56.940Z,6.60
2023-03-19T16:51:21.235Z,8.27
2023-03-19T16:52:45.393Z,8.43
2023-03-19T16:54:09.315Z,7.23
2023-03-19T16:55:35.918Z,5.20
2023-03-19T16:56:58.183Z,11.00
2023-03-19T16:58:32.153Z,7.17
2023-03-19T16:59:54.368Z,8.10
2023-03-19T17:01:20.171Z,12.23
2023-03-19T17:02:42.364Z,10.33
2023-03-19T17:04:12.422Z,6.53
2023-03-19T17:05:34.866Z,9.60
2023-03-19T17:06:57.250Z,6.80
2023-03-19T17:08:21.748Z,7.43
2023-03-19T17:09:43.874Z,12.30
2023-03-19T17:11:06.393Z,9.30
2023-03-19T17:12:28.762Z,7.50
2023-03-19T17:13:51.637Z,6.97
2023-03-19T17:15:20.273Z,8.43
2023-03-19T17:16:47.828Z,8.53
2023-03-19T17:18:24.695Z,6.60
2023-03-19T17:19:47.375Z,6.87
2023-03-19T17:21:31.311Z,6.43
2023-03-19T17:22:53.729Z,8.20
2023-03-19T17:24:33.799Z,7.03
2023-03-19T17:25:56.406Z,9.60
2023-03-19T17:27:18.466Z,9.00
2023-03-19T17:28:40.637Z,8.10
2023-03-19T17:30:02.827Z,9.20
2023-03-19T17:31:33.382Z,9.17
2023-03-19T17:32:56.786Z,8.67
2023-03-19T17:34:27.043Z,11.07
2023-03-19T17:35:49.344Z,10.00
2023-03-19T17:37:14.637Z,9.53
2023-03-19T17:38:36.791Z,10.30
2023-03-19T17:39:58.984Z,8.10
2023-03-19T17:41:21.291Z,9.63
2023-03-19T17:42:43.540Z,13.77
2023-03-19T17:44:06.706Z,11.80
2023-03-19T17:45:29.940Z,7.00
2023-03-19T17:46:54.180Z,7.57
2023-03-19T17:48:27.017Z,8.07
2023-03-19T17:49:49.282Z,6.53
2023-03-19T17:51:11.761Z,7.97
2023-03-19T17:52:36.202Z,6.17
2023-03-19T17:53:59.037Z,7.77
2023-03-19T17:55:23.749Z,8.60
2023-03-19T17:56:45.996Z,6.40
2023-03-19T17:58:21.378Z,7.03
2023-03-19T17:59:43.891Z,6.43
2023-03-19T18:01:15.073Z,5.07
2023-03-19T18:02:37.572Z,4.90
2023-03-19T18:04:00.858Z,6.33
2023-03-19T18:05:26.050Z,5.53
2023-03-19T18:06:54.988Z,5.60
2023-03-19T18:08:20.096Z,5.47
2023-03-19T18:09:42.249Z,7.17
2023-03-19T18:11:04.522Z,6.43
2023-03-19T18:12:26.612Z,4.57
2023-03-19T18:13:48.963Z,4.70
2023-03-19T18:15:11.822Z,5.10
2023-03-19T18:16:33.982Z,7.93
2023-03-19T18:17:58.727Z,7.67
2023-03-19T18:19:29.946Z,30.20
2023-03-19T18:20:52.446Z,12.40
2023-03-19T18:22:17.095Z,9.37
2023-03-19T18:23:39.361Z,4.73
2023-03-19T18:26:17.075Z,7.90
2023-03-19T18:27:39.153Z,8.90
2023-03-19T18:29:01.237Z,6.27
2023-03-19T18:30:23.945Z,6.33
2023-03-19T18:31:48.496Z,7.10
2023-03-19T18:33:29.185Z,8.10
2023-03-19T18:34:51.256Z,6.57
2023-03-19T18:36:18.285Z,7.20
2023-03-19T18:37:40.449Z,6.03
2023-03-19T18:39:02.559Z,5.60
2023-03-19T18:40:27.662Z,6.00
2023-03-19T18:41:49.870Z,4.50
2023-03-19T18:43:15.500Z,3.73
2023-03-19T18:44:38.150Z,4.17
2023-03-19T18:46:00.663Z,3.47
2023-03-19T18:47:22.889Z,4.60
2023-03-19T18:48:44.994Z,4.60
2023-03-19T18:50:25.215Z,4.67
2023-03-19T18:52:01.153Z,6.13
2023-03-19T18:53:24.954Z,4.17
2023-03-19T18:54:47.500Z,6.20